createdAt,value
2018-08-11T00:02:00.863Z,47.39
2018-08-11T00:04:58.709Z,47.38
2018-08-11T00:07:57.761Z,47.57
2018-08-11T00:10:55.740Z,48.24
2018-08-11T00:13:53.802Z,48.46
2018-08-11T00:16:51.539Z,48.50
2018-08-11T00:19:49.432Z,48.00
2018-08-11T00:22:48.543Z,48.83
2018-08-11T00:25:46.496Z,48.14
2018-08-11T00:28:44.440Z,48.63
2018-08-11T00:31:42.161Z,48.79
2018-08-11T00:34:40.012Z,48.88
2018-08-11T00:37:37.993Z,48.81
2018-08-11T00:40:36.999Z,48.78
2018-08-11T00:43:34.972Z,49.37
2018-08-11T00:46:33.044Z,49.36
2018-08-11T00:49:31.183Z,48.87
2018-08-11T00:52:28.839Z,49.46
2018-08-11T00:55:27.504Z,49.13
2018-08-11T00:58:25.420Z,48.95
2018-08-11T01:01:23.436Z,49.74
2018-08-11T01:04:21.511Z,49.74
2018-08-11T01:07:19.270Z,49.78
2018-08-11T01:10:18.230Z,50.56
2018-08-11T01:13:16.131Z,50.11
2018-08-11T01:16:14.230Z,50.59
2018-08-11T01:19:12.187Z,50.65
2018-08-11T01:22:10.187Z,50.54
2018-08-11T01:25:08.206Z,51.20
2018-08-11T01:28:06.006Z,51.54
2018-08-11T01:31:03.823Z,50.93
2018-08-11T01:34:01.726Z,50.90
2018-08-11T01:36:59.351Z,50.76
2018-08-11T01:39:57.098Z,50.99
2018-08-11T01:42:56.235Z,51.31
2018-08-11T01:45:53.982Z,51.09
2018-08-11T01:48:51.799Z,51.24
2018-08-11T01:51:49.791Z,51.62
2018-08-11T01:54:47.692Z,50.78
2018-08-11T01:57:45.770Z,50.98
2018-08-11T02:00:43.869Z,50.55
2018-08-11T02:03:41.817Z,51.11
2018-08-11T02:06:39.831Z,50.75
2018-08-11T02:09:37.848Z,50.82
2018-08-11T02:12:35.793Z,50.53
2018-08-11T02:15:33.601Z,50.97
2018-08-11T02:18:30.751Z,51.10
2018-08-11T02:21:28.717Z,50.90
2018-08-11T02:24:26.636Z,51.57
2018-08-11T02:27:24.664Z,51.22
2018-08-11T02:30:25.719Z,51.13
2018-08-11T02:33:23.593Z,51.45
2018-08-11T02:36:21.669Z,51.68
2018-08-11T02:39:22.569Z,51.43
2018-08-11T02:42:20.387Z,52.06
2018-08-11T02:45:20.472Z,51.79
2018-08-11T02:48:18.513Z,52.82
2018-08-11T02:51:16.451Z,54.21
2018-08-11T02:54:14.443Z,54.50
2018-08-11T02:57:12.315Z,58.15
2018-08-11T03:00:10.126Z,64.40
2018-08-11T03:03:07.913Z,66.45
2018-08-11T03:06:05.840Z,67.59
2018-08-11T03:09:03.791Z,69.26
2018-08-11T03:12:01.732Z,70.54
2018-08-11T03:14:59.754Z,71.50
2018-08-11T03:17:57.820Z,70.49
2018-08-11T03:20:55.683Z,70.42
2018-08-11T03:23:53.772Z,69.85
2018-08-11T03:26:51.847Z,70.23
2018-08-11T03:29:49.816Z,70.84
2018-08-11T03:32:47.995Z,71.95
2018-08-11T03:35:45.742Z,73.34
2018-08-11T03:38:43.634Z,74.33
2018-08-11T03:41:41.604Z,74.86
2018-08-11T03:44:39.490Z,74.91
2018-08-11T03:47:37.570Z,74.28
2018-08-11T03:50:35.702Z,74.38
2018-08-11T03:53:33.713Z,74.63
2018-08-11T03:56:31.754Z,74.74
2018-08-11T03:59:30.651Z,75.52
2018-08-11T04:02:28.340Z,75.17
2018-08-11T04:05:26.326Z,75.36
2018-08-11T04:08:24.091Z,75.14
2018-08-11T04:11:22.183Z,76.25
2018-08-11T04:14:20.085Z,75.61
2018-08-11T04:17:18.247Z,75.27
2018-08-11T04:20:18.190Z,76.44
2018-08-11T04:23:15.521Z,76.05
2018-08-11T04:26:13.583Z,76.03
2018-08-11T04:29:11.575Z,75.16
2018-08-11T04:32:09.532Z,75.10
2018-08-11T04:35:07.436Z,74.63
2018-08-11T04:38:05.354Z,76.08
2018-08-11T04:41:03.392Z,75.27
2018-08-11T04:44:01.193Z,75.90
2018-08-11T04:46:59.238Z,76.58
2018-08-11T04:49:57.279Z,75.63
2018-08-11T04:52:55.211Z,75.38
2018-08-11T04:55:53.053Z,75.57
2018-08-11T04:58:50.853Z,74.77
2018-08-11T05:01:48.999Z,75.01
2018-08-11T05:04:46.631Z,74.16
2018-08-11T05:07:44.456Z,74.17
2018-08-11T05:10:42.592Z,73.43
2018-08-11T05:13:40.477Z,73.62
2018-08-11T05:16:38.204Z,72.71
2018-08-11T05:19:36.275Z,69.80
2018-08-11T05:22:34.084Z,65.10
2018-08-11T05:25:31.924Z,61.62
2018-08-11T05:28:29.724Z,59.39
2018-08-11T05:31:27.560Z,57.73
2018-08-11T05:34:24.747Z,57.13
2018-08-11T05:37:22.619Z,56.59
2018-08-11T05:40:20.680Z,54.01
2018-08-11T05:43:18.667Z,53.53
2018-08-11T05:46:16.753Z,53.80
2018-08-11T05:49:15.416Z,55.50
2018-08-11T05:52:14.298Z,54.42
2018-08-11T05:55:12.170Z,56.44
2018-08-11T05:58:10.084Z,58.32
2018-08-11T06:01:08.148Z,62.60
2018-08-11T06:04:05.960Z,64.22
2018-08-11T06:07:03.682Z,65.26
2018-08-11T06:10:01.588Z,65.93
2018-08-11T06:12:59.195Z,66.52
2018-08-11T06:15:57.095Z,66.89
2018-08-11T06:18:54.787Z,67.79
2018-08-11T06:21:52.737Z,67.60
2018-08-11T06:24:50.707Z,69.27
2018-08-11T06:27:48.782Z,68.53
2018-08-11T06:30:46.678Z,68.14
2018-08-11T06:33:44.552Z,67.66
2018-08-11T06:36:42.481Z,67.43
2018-08-11T06:39:40.377Z,66.48
2018-08-11T06:42:38.402Z,66.80
2018-08-11T06:45:36.430Z,66.08
2018-08-11T06:48:34.274Z,65.46
2018-08-11T06:51:32.193Z,60.53
2018-08-11T06:54:30.146Z,61.03
2018-08-11T06:57:28.016Z,61.31
2018-08-11T07:00:25.875Z,59.73
2018-08-11T07:03:23.840Z,61.20
2018-08-11T07:06:21.783Z,62.48
2018-08-11T07:09:21.650Z,64.39
2018-08-11T07:12:19.720Z,65.62
2018-08-11T07:15:17.464Z,65.19
2018-08-11T07:18:15.319Z,64.50
2018-08-11T07:21:13.365Z,61.13
2018-08-11T07:24:11.082Z,56.20
2018-08-11T07:27:09.058Z,52.46
2018-08-11T07:30:06.993Z,48.36
2018-08-11T07:33:04.728Z,47.12
2018-08-11T07:36:02.725Z,45.84
2018-08-11T07:39:00.569Z,44.14
2018-08-11T07:41:58.631Z,43.11
2018-08-11T07:44:56.643Z,47.53
2018-08-11T07:47:54.403Z,53.22
2018-08-11T07:50:52.394Z,49.64
2018-08-11T07:53:50.101Z,46.93
2018-08-11T07:56:47.862Z,46.23
2018-08-11T07:59:45.797Z,48.67
2018-08-11T08:02:43.683Z,47.71
2018-08-11T08:05:41.499Z,49.13
2018-08-11T08:08:39.405Z,47.69
2018-08-11T08:11:37.391Z,44.04
2018-08-11T08:14:35.246Z,42.69
2018-08-11T08:17:33.064Z,42.45
2018-08-11T08:20:30.183Z,40.59
2018-08-11T08:23:28.106Z,42.41
2018-08-11T08:26:26.185Z,41.08
2018-08-11T08:29:23.883Z,39.87
2018-08-11T08:32:21.727Z,41.65
2018-08-11T08:35:19.646Z,41.79
2018-08-11T08:38:17.695Z,43.47
2018-08-11T08:41:15.768Z,39.71
2018-08-11T08:44:13.646Z,39.13
2018-08-11T08:47:11.683Z,41.29
2018-08-11T08:50:09.496Z,42.99
2018-08-11T08:53:07.408Z,41.06
2018-08-11T08:56:05.628Z,37.69
2018-08-11T08:59:03.649Z,36.50
2018-08-11T09:02:01.491Z,38.69
2018-08-11T09:04:59.467Z,40.05
2018-08-11T09:07:57.571Z,40.86
2018-08-11T09:10:55.402Z,39.05
2018-08-11T09:13:53.516Z,38.58
2018-08-11T09:16:51.375Z,38.93
2018-08-11T09:19:49.332Z,38.00
2018-08-11T09:22:47.519Z,39.76
2018-08-11T09:25:45.491Z,42.14
2018-08-11T09:28:43.551Z,38.54
2018-08-11T09:31:41.760Z,39.64
2018-08-11T09:34:39.496Z,38.34
2018-08-11T09:37:37.439Z,36.20
2018-08-11T09:40:35.156Z,37.84
2018-08-11T09:43:32.995Z,37.43
2018-08-11T09:46:30.839Z,37.46
2018-08-11T09:49:28.756Z,39.78
2018-08-11T09:52:26.617Z,42.34
2018-08-11T09:55:24.659Z,43.36
2018-08-11T09:58:22.453Z,45.53
2018-08-11T10:01:26.407Z,46.32
2018-08-11T10:04:24.595Z,44.80
2018-08-11T10:07:22.483Z,43.77
2018-08-11T10:10:20.320Z,43.80
2018-08-11T10:13:18.435Z,43.27
2018-08-11T10:16:16.315Z,43.80
2018-08-11T10:19:14.072Z,45.21
2018-08-11T10:22:12.186Z,46.10
2018-08-11T10:25:10.019Z,45.75
2018-08-11T10:28:08.275Z,47.69
2018-08-11T10:31:06.368Z,48.79
2018-08-11T10:34:04.108Z,47.55
2018-08-11T10:37:02.210Z,48.03
2018-08-11T10:40:00.269Z,48.25
2018-08-11T10:42:58.187Z,48.49
2018-08-11T10:45:56.366Z,47.49
2018-08-11T10:48:54.354Z,46.11
2018-08-11T10:51:52.463Z,45.66
2018-08-11T10:54:50.400Z,45.19
2018-08-11T10:57:48.451Z,42.44
2018-08-11T11:00:46.165Z,40.89
2018-08-11T11:03:44.282Z,39.48
2018-08-11T11:06:42.136Z,37.61
2018-08-11T11:09:40.009Z,36.41
2018-08-11T11:12:37.862Z,35.92
2018-08-11T11:15:35.768Z,35.36
2018-08-11T11:18:33.554Z,36.59
2018-08-11T11:21:31.489Z,36.65
2018-08-11T11:24:29.448Z,36.51
2018-08-11T11:27:27.459Z,36.83
2018-08-11T11:30:25.216Z,36.36
2018-08-11T11:33:23.333Z,35.93
2018-08-11T11:36:21.363Z,37.43
2018-08-11T11:39:21.176Z,38.37
2018-08-11T11:42:19.264Z,40.12
2018-08-11T11:45:17.119Z,40.42
2018-08-11T11:48:14.727Z,42.16
2018-08-11T11:51:12.703Z,41.29
2018-08-11T11:54:10.322Z,41.24
2018-08-11T11:57:08.360Z,41.02
2018-08-11T12:00:06.271Z,41.17
2018-08-11T12:03:04.263Z,41.18
2018-08-11T12:06:02.060Z,40.48
2018-08-11T12:08:59.953Z,40.42
2018-08-11T12:11:57.736Z,40.72
2018-08-11T12:14:55.672Z,40.35
2018-08-11T12:17:53.555Z,40.06
2018-08-11T12:20:51.524Z,40.16
2018-08-11T12:23:49.340Z,39.98
2018-08-11T12:26:47.316Z,39.71
2018-08-11T12:29:45.262Z,39.80
2018-08-11T12:32:43.315Z,41.04
2018-08-11T12:35:41.147Z,39.87
2018-08-11T12:38:38.997Z,40.17
2018-08-11T12:41:37.126Z,40.13
2018-08-11T12:44:34.988Z,40.70
2018-08-11T12:47:32.873Z,40.13
2018-08-11T12:50:30.750Z,39.53
2018-08-11T12:53:28.445Z,40.02
2018-08-11T12:56:26.469Z,40.37
2018-08-11T12:59:24.179Z,39.64
2018-08-11T13:02:22.097Z,39.61
2018-08-11T13:05:19.792Z,39.59
2018-08-11T13:08:17.463Z,40.72
2018-08-11T13:11:15.375Z,39.54
2018-08-11T13:14:14.295Z,39.50
2018-08-11T13:17:12.267Z,39.87
2018-08-11T13:20:10.322Z,38.98
2018-08-11T13:23:08.207Z,38.95
2018-08-11T13:26:06.303Z,39.15
2018-08-11T13:29:04.278Z,39.88
2018-08-11T13:32:02.144Z,41.14
2018-08-11T13:35:00.182Z,40.58
2018-08-11T13:37:58.197Z,40.81
2018-08-11T13:40:56.084Z,41.04
2018-08-11T13:43:53.928Z,40.94
2018-08-11T13:46:51.870Z,40.16
2018-08-11T13:49:49.750Z,40.16
2018-08-11T13:52:47.667Z,39.41
2018-08-11T13:55:44.716Z,39.77
2018-08-11T13:58:42.660Z,39.82
2018-08-11T14:01:40.665Z,40.07
2018-08-11T14:04:46.982Z,39.83
2018-08-11T14:07:45.110Z,39.64
2018-08-11T14:10:42.988Z,39.57
2018-08-11T14:13:40.234Z,39.86
2018-08-11T14:16:38.327Z,40.76
2018-08-11T14:19:36.071Z,40.84
2018-08-11T14:22:34.067Z,39.58
2018-08-11T14:25:32.139Z,39.86
2018-08-11T14:28:30.036Z,39.30
2018-08-11T14:31:28.042Z,38.96
2018-08-11T14:34:25.827Z,40.12
2018-08-11T14:37:23.525Z,39.16
2018-08-11T14:40:22.292Z,39.15
2018-08-11T14:43:20.061Z,39.07
2018-08-11T14:46:18.300Z,39.12
2018-08-11T14:49:16.062Z,39.02
2018-08-11T14:52:14.076Z,39.75
2018-08-11T14:55:11.975Z,38.96
2018-08-11T14:58:09.744Z,39.12
2018-08-11T15:01:07.429Z,39.80
2018-08-11T15:04:05.248Z,39.69
2018-08-11T15:07:02.491Z,38.99
2018-08-11T15:10:00.367Z,39.92
2018-08-11T15:12:58.515Z,38.92
2018-08-11T15:15:56.469Z,39.59
2018-08-11T15:18:54.538Z,39.08
2018-08-11T15:21:52.426Z,39.22
2018-08-11T15:24:50.494Z,39.87
2018-08-11T15:27:48.547Z,38.59
2018-08-11T15:30:46.573Z,39.41
2018-08-11T15:33:44.420Z,39.16
2018-08-11T15:36:42.179Z,39.52
2018-08-11T15:39:40.036Z,39.44
2018-08-11T15:42:37.930Z,39.33
2018-08-11T15:45:35.931Z,39.48
2018-08-11T15:48:33.771Z,38.95
2018-08-11T15:51:31.671Z,39.06
2018-08-11T15:54:29.304Z,38.97
2018-08-11T15:57:27.277Z,37.76
2018-08-11T16:00:25.130Z,38.81
2018-08-11T16:03:22.755Z,38.16
2018-08-11T16:06:20.798Z,38.04
2018-08-11T16:09:20.700Z,38.18
2018-08-11T16:12:18.686Z,37.42
2018-08-11T16:15:16.733Z,37.24
2018-08-11T16:18:13.871Z,36.89
2018-08-11T16:21:11.724Z,37.58
2018-08-11T16:24:09.628Z,38.03
2018-08-11T16:27:07.595Z,38.05
2018-08-11T16:30:05.380Z,37.87
2018-08-11T16:33:02.596Z,38.08
2018-08-11T16:36:00.612Z,36.84
2018-08-11T16:38:58.431Z,37.75
2018-08-11T16:41:56.413Z,37.53
2018-08-11T16:44:54.508Z,38.21
2018-08-11T16:47:52.495Z,38.24
2018-08-11T16:50:50.099Z,36.97
2018-08-11T16:53:48.163Z,37.44
2018-08-11T16:56:46.057Z,37.19
2018-08-11T16:59:44.058Z,37.43
2018-08-11T17:02:42.014Z,38.00
2018-08-11T17:05:40.208Z,36.66
2018-08-11T17:08:38.048Z,37.32
2018-08-11T17:11:35.911Z,36.83
2018-08-11T17:14:33.959Z,36.98
2018-08-11T17:17:31.712Z,36.87
2018-08-11T17:20:29.648Z,37.44
2018-08-11T17:23:27.619Z,36.63
2018-08-11T17:26:25.535Z,36.85
2018-08-11T17:29:23.591Z,37.27
2018-08-11T17:32:21.592Z,37.41
2018-08-11T17:35:19.388Z,38.39
2018-08-11T17:38:17.299Z,38.12
2018-08-11T17:41:15.440Z,38.57
2018-08-11T17:44:13.439Z,38.49
2018-08-11T17:47:11.447Z,39.16
2018-08-11T17:50:09.211Z,39.61
2018-08-11T17:53:07.050Z,39.28
2018-08-11T17:56:05.036Z,39.15
2018-08-11T17:59:03.229Z,39.51
2018-08-11T18:02:01.467Z,39.59
2018-08-11T18:04:59.259Z,40.07
2018-08-11T18:07:57.105Z,40.89
2018-08-11T18:10:54.887Z,40.58
2018-08-11T18:13:53.045Z,40.74
2018-08-11T18:16:51.093Z,41.34
2018-08-11T18:19:49.171Z,40.90
2018-08-11T18:22:46.988Z,41.76
2018-08-11T18:25:45.264Z,42.27
2018-08-11T18:28:43.296Z,41.99
2018-08-11T18:31:41.192Z,41.78
2018-08-11T18:34:39.134Z,41.53
2018-08-11T18:37:37.061Z,42.15
2018-08-11T18:40:35.268Z,42.51
2018-08-11T18:43:33.113Z,42.50
2018-08-11T18:46:31.179Z,42.92
2018-08-11T18:49:29.283Z,43.40
2018-08-11T19:06:31.307Z,45.30
2018-08-11T19:09:30.880Z,45.54
2018-08-11T19:12:28.728Z,46.81
2018-08-11T19:15:26.800Z,46.49
2018-08-11T19:18:23.780Z,46.32
2018-08-11T19:21:21.731Z,47.11
2018-08-11T19:24:19.681Z,47.62
2018-08-11T19:27:16.758Z,48.88
2018-08-11T19:30:14.819Z,48.86
2018-08-11T19:33:12.792Z,49.78
2018-08-11T19:36:10.884Z,51.05
2018-08-11T19:39:09.026Z,51.31
2018-08-11T19:42:06.499Z,52.08
2018-08-11T19:45:04.403Z,52.55
2018-08-11T19:48:02.511Z,53.31
2018-08-11T19:51:00.752Z,53.78
2018-08-11T19:53:58.791Z,53.95
2018-08-11T19:56:56.903Z,54.42
2018-08-11T19:59:54.412Z,54.79
2018-08-11T20:02:51.788Z,54.96
2018-08-11T20:05:48.896Z,55.28
2018-08-11T20:08:46.101Z,55.40
2018-08-11T20:11:43.220Z,55.87
2018-08-11T20:14:40.332Z,56.37
2018-08-11T20:17:37.827Z,57.40
2018-08-11T20:20:35.067Z,57.25
2018-08-11T20:23:32.623Z,57.53
2018-08-11T20:26:29.810Z,58.14
2018-08-11T20:29:27.104Z,57.81
2018-08-11T20:32:24.311Z,57.50
2018-08-11T20:35:21.624Z,58.23
2018-08-11T20:38:18.758Z,59.48
2018-08-11T20:41:16.919Z,59.42
2018-08-11T20:44:14.090Z,59.77
2018-08-11T20:47:12.080Z,59.81
2018-08-11T20:50:09.682Z,59.72
2018-08-11T20:53:07.431Z,59.49
2018-08-11T20:56:05.334Z,59.13
2018-08-11T20:59:03.480Z,59.95
2018-08-11T21:02:00.614Z,60.12
2018-08-11T21:04:58.612Z,60.95
2018-08-11T21:07:55.651Z,60.68
2018-08-11T21:10:53.571Z,61.09
2018-08-11T21:13:50.624Z,61.31
2018-08-11T21:16:47.934Z,60.61
2018-08-11T21:19:45.136Z,61.41
2018-08-11T21:22:43.291Z,61.16
2018-08-11T21:25:40.457Z,61.94
2018-08-11T21:28:37.663Z,62.00
2018-08-11T21:31:34.955Z,62.53
2018-08-11T21:34:32.925Z,61.79
2018-08-11T21:37:30.088Z,62.41
2018-08-11T21:40:29.209Z,62.10
2018-08-11T21:43:26.963Z,62.41
2018-08-11T21:46:24.844Z,63.16
2018-08-11T21:49:22.683Z,62.86
2018-08-11T21:52:20.636Z,62.79
2018-08-11T21:55:19.568Z,63.56
2018-08-11T21:58:16.628Z,64.75
2018-08-11T22:01:20.686Z,64.71
2018-08-11T22:04:18.604Z,63.91
2018-08-11T22:07:17.731Z,64.42
2018-08-11T22:10:15.687Z,64.64
2018-08-11T22:13:13.875Z,64.63
2018-08-11T22:16:11.937Z,64.85
2018-08-11T22:19:09.821Z,65.56
2018-08-11T22:22:06.883Z,65.31
2018-08-11T22:25:04.036Z,65.59
2018-08-11T22:28:02.016Z,66.20
2018-08-11T22:31:00.079Z,67.14
2018-08-11T22:33:57.451Z,67.36
2018-08-11T22:36:54.867Z,67.39
2018-08-11T22:39:52.968Z,68.01
2018-08-11T22:42:50.880Z,67.48
2018-08-11T22:45:48.192Z,67.18
2018-08-11T22:48:45.314Z,67.45
2018-08-11T22:51:43.031Z,68.79
2018-08-11T22:54:40.773Z,68.59
2018-08-11T22:57:37.827Z,69.29
2018-08-11T23:00:37.878Z,68.94
2018-08-11T23:03:35.861Z,68.64
2018-08-11T23:06:33.591Z,68.70
2018-08-11T23:09:30.762Z,68.98
2018-08-11T23:12:28.655Z,68.64
2018-08-11T23:15:28.517Z,69.00
2018-08-11T23:18:26.251Z,69.23
2018-08-11T23:21:24.206Z,70.15
2018-08-11T23:24:22.040Z,69.74
2018-08-11T23:27:20.050Z,70.53
2018-08-11T23:30:17.227Z,70.49
2018-08-11T23:33:15.229Z,70.38
2018-08-11T23:36:12.761Z,70.63
2018-08-11T23:39:11.839Z,70.10
2018-08-11T23:42:09.311Z,70.13
2018-08-11T23:45:07.231Z,70.01
2018-08-11T23:48:04.448Z,71.34
2018-08-11T23:51:02.325Z,71.74
2018-08-11T23:54:00.207Z,71.82
2018-08-11T23:56:57.644Z,73.58
2018-08-11T23:59:54.868Z,73.33
